sensor_id;sensor_type;location;lat;lon;timestamp;temperature;humidity
14357;DHT22;7262;48.764;9.166;2024-01-11T00:00:30;-4.30;99.90
14357;DHT22;7262;48.764;9.166;2024-01-11T00:02:57;-4.30;99.90
14357;DHT22;7262;48.764;9.166;2024-01-11T00:05:24;-4.40;99.90
14357;DHT22;7262;48.764;9.166;2024-01-11T00:07:51;-4.30;99.90
14357;DHT22;7262;48.764;9.166;2024-01-11T00:10:18;-4.30;99.90
14357;DHT22;7262;48.764;9.166;2024-01-11T00:12:51;-4.30;99.90
14357;DHT22;7262;48.764;9.166;2024-01-11T00:15:18;-4.20;99.90
14357;DHT22;7262;48.764;9.166;2024-01-11T00:17:45;-4.40;99.90
14357;DHT22;7262;48.764;9.166;2024-01-11T00:20:12;-4.40;99.90
14357;DHT22;7262;48.764;9.166;2024-01-11T00:22:39;-4.40;99.90
14357;DHT22;7262;48.764;9.166;2024-01-11T00:25:06;-4.40;99.90
14357;DHT22;7262;48.764;9.166;2024-01-11T00:27:33;-4.40;99.90
14357;DHT22;7262;48.764;9.166;2024-01-11T00:30:03;-4.40;99.90
14357;DHT22;7262;48.764;9.166;2024-01-11T00:32:33;-4.40;99.90
14357;DHT22;7262;48.764;9.166;2024-01-11T00:35:00;-4.40;99.90
14357;DHT22;7262;48.764;9.166;2024-01-11T00:37:27;-4.50;99.90
14357;DHT22;7262;48.764;9.166;2024-01-11T00:39:53;-4.50;99.90
14357;DHT22;7262;48.764;9.166;2024-01-11T00:42:20;-4.50;99.90
14357;DHT22;7262;48.764;9.166;2024-01-11T00:44:47;-4.50;99.90
14357;DHT22;7262;48.764;9.166;2024-01-11T00:47:16;-4.50;99.90
14357;DHT22;7262;48.764;9.166;2024-01-11T00:49:43;-4.60;99.90
14357;DHT22;7262;48.764;9.166;2024-01-11T00:52:10;-4.50;99.90
14357;DHT22;7262;48.764;9.166;2024-01-11T00:54:40;-4.60;99.90
14357;DHT22;7262;48.764;9.166;2024-01-11T01:02:22;-4.60;99.90
14357;DHT22;7262;48.764;9.166;2024-01-11T01:04:49;-4.70;99.90
14357;DHT22;7262;48.764;9.166;2024-01-11T01:07:18;-4.60;99.90
14357;DHT22;7262;48.764;9.166;2024-01-11T01:09:44;-4.60;99.90
14357;DHT22;7262;48.764;9.166;2024-01-11T01:12:11;-4.70;99.90
14357;DHT22;7262;48.764;9.166;2024-01-11T01:14:38;-4.70;99.90
14357;DHT22;7262;48.764;9.166;2024-01-11T01:17:05;-4.70;99.90
14357;DHT22;7262;48.764;9.166;2024-01-11T01:19:33;-4.70;99.90
14357;DHT22;7262;48.764;9.166;2024-01-11T01:22:00;-4.70;99.90
14357;DHT22;7262;48.764;9.166;2024-01-11T01:24:29;-4.70;99.90
14357;DHT22;7262;48.764;9.166;2024-01-11T01:26:57;-4.70;99.90
14357;DHT22;7262;48.764;9.166;2024-01-11T01:29:24;-4.60;99.90
14357;DHT22;7262;48.764;9.166;2024-01-11T01:31:51;-4.60;99.90
14357;DHT22;7262;48.764;9.166;2024-01-11T01:34:18;-4.70;99.90
14357;DHT22;7262;48.764;9.166;2024-01-11T01:36:47;-4.60;99.90
14357;DHT22;7262;48.764;9.166;2024-01-11T01:39:14;-4.70;99.90
14357;DHT22;7262;48.764;9.166;2024-01-11T01:41:41;-4.80;99.90
14357;DHT22;7262;48.764;9.166;2024-01-11T01:44:08;-4.80;99.90
14357;DHT22;7262;48.764;9.166;2024-01-11T01:46:35;-4.80;99.90
14357;DHT22;7262;48.764;9.166;2024-01-11T01:49:03;-4.80;99.90
14357;DHT22;7262;48.764;9.166;2024-01-11T01:51:30;-4.80;99.90
14357;DHT22;7262;48.764;9.166;2024-01-11T01:54:00;-4.80;99.90
14357;DHT22;7262;48.764;9.166;2024-01-11T01:56:27;-4.80;99.90
14357;DHT22;7262;48.764;9.166;2024-01-11T01:58:54;-4.80;99.90
14357;DHT22;7262;48.764;9.166;2024-01-11T02:01:21;-4.70;99.90
14357;DHT22;7262;48.764;9.166;2024-01-11T02:03:49;-4.70;99.90
14357;DHT22;7262;48.764;9.166;2024-01-11T02:06:15;-4.70;99.90
14357;DHT22;7262;48.764;9.166;2024-01-11T02:08:42;-4.70;99.90
14357;DHT22;7262;48.764;9.166;2024-01-11T02:11:11;-4.60;99.90
14357;DHT22;7262;48.764;9.166;2024-01-11T02:13:38;-4.60;99.90
14357;DHT22;7262;48.764;9.166;2024-01-11T02:16:05;-4.60;99.90
14357;DHT22;7262;48.764;9.166;2024-01-11T02:18:32;-4.50;99.90
14357;DHT22;7262;48.764;9.166;2024-01-11T02:20:59;-4.70;99.90
14357;DHT22;7262;48.764;9.166;2024-01-11T02:23:27;-4.60;99.90
14357;DHT22;7262;48.764;9.166;2024-01-11T02:25:55;-4.70;99.90
14357;DHT22;7262;48.764;9.166;2024-01-11T02:28:24;-4.70;99.90
14357;DHT22;7262;48.764;9.166;2024-01-11T02:30:51;-4.80;99.90
14357;DHT22;7262;48.764;9.166;2024-01-11T02:33:18;-4.80;99.90
14357;DHT22;7262;48.764;9.166;2024-01-11T02:35:45;-5.00;99.90
14357;DHT22;7262;48.764;9.166;2024-01-11T02:38:11;-4.90;99.90
14357;DHT22;7262;48.764;9.166;2024-01-11T02:40:38;-5.00;99.90
14357;DHT22;7262;48.764;9.166;2024-01-11T02:43:08;-5.00;99.90
14357;DHT22;7262;48.764;9.166;2024-01-11T02:45:36;-5.10;99.90
14357;DHT22;7262;48.764;9.166;2024-01-11T02:48:03;-5.00;99.90
14357;DHT22;7262;48.764;9.166;2024-01-11T02:50:29;-5.00;99.90
14357;DHT22;7262;48.764;9.166;2024-01-11T02:52:56;-5.10;99.90
14357;DHT22;7262;48.764;9.166;2024-01-11T02:55:23;-5.10;99.90
14357;DHT22;7262;48.764;9.166;2024-01-11T02:57:50;-5.10;99.90
14357;DHT22;7262;48.764;9.166;2024-01-11T03:00:18;-5.00;99.90
14357;DHT22;7262;48.764;9.166;2024-01-11T03:02:46;-5.00;99.90
14357;DHT22;7262;48.764;9.166;2024-01-11T03:05:13;-5.00;99.90
14357;DHT22;7262;48.764;9.166;2024-01-11T03:07:40;-4.90;99.90
14357;DHT22;7262;48.764;9.166;2024-01-11T03:10:07;-4.90;99.90
14357;DHT22;7262;48.764;9.166;2024-01-11T03:12:36;-4.90;99.90
14357;DHT22;7262;48.764;9.166;2024-01-11T03:15:03;-4.90;99.90
14357;DHT22;7262;48.764;9.166;2024-01-11T03:17:32;-5.00;99.90
14357;DHT22;7262;48.764;9.166;2024-01-11T03:19:59;-5.00;99.90
14357;DHT22;7262;48.764;9.166;2024-01-11T03:22:26;-5.00;99.90
14357;DHT22;7262;48.764;9.166;2024-01-11T03:24:53;-5.10;99.90
14357;DHT22;7262;48.764;9.166;2024-01-11T03:27:20;-5.10;99.90
14357;DHT22;7262;48.764;9.166;2024-01-11T03:29:48;-5.10;99.90
14357;DHT22;7262;48.764;9.166;2024-01-11T03:32:15;-5.20;99.90
14357;DHT22;7262;48.764;9.166;2024-01-11T03:34:43;-5.20;99.90
14357;DHT22;7262;48.764;9.166;2024-01-11T03:37:11;-5.20;99.90
14357;DHT22;7262;48.764;9.166;2024-01-11T03:39:37;-5.30;99.90
14357;DHT22;7262;48.764;9.166;2024-01-11T03:42:04;-5.20;99.90
14357;DHT22;7262;48.764;9.166;2024-01-11T03:44:31;-5.20;99.90
14357;DHT22;7262;48.764;9.166;2024-01-11T03:47:00;-5.30;99.90
14357;DHT22;7262;48.764;9.166;2024-01-11T03:49:26;-5.20;99.90
14357;DHT22;7262;48.764;9.166;2024-01-11T03:51:55;-5.20;99.90
14357;DHT22;7262;48.764;9.166;2024-01-11T03:54:22;-5.10;99.90
14357;DHT22;7262;48.764;9.166;2024-01-11T03:56:49;-5.10;99.90
14357;DHT22;7262;48.764;9.166;2024-01-11T03:59:15;-5.10;99.90
14357;DHT22;7262;48.764;9.166;2024-01-11T04:01:42;-5.10;99.90
14357;DHT22;7262;48.764;9.166;2024-01-11T04:04:10;-5.10;99.90
14357;DHT22;7262;48.764;9.166;2024-01-11T04:06:37;-5.20;99.90
14357;DHT22;7262;48.764;9.166;2024-01-11T04:09:06;-5.20;99.90
14357;DHT22;7262;48.764;9.166;2024-01-11T04:11:33;-5.20;99.90
14357;DHT22;7262;48.764;9.166;2024-01-11T04:13:59;-5.20;99.90
14357;DHT22;7262;48.764;9.166;2024-01-11T04:16:29;-5.20;99.90
14357;DHT22;7262;48.764;9.166;2024-01-11T04:18:55;-5.20;99.90
14357;DHT22;7262;48.764;9.166;2024-01-11T04:21:22;-5.20;99.90
14357;DHT22;7262;48.764;9.166;2024-01-11T04:23:49;-5.20;99.90
14357;DHT22;7262;48.764;9.166;2024-01-11T04:26:17;-5.20;99.90
14357;DHT22;7262;48.764;9.166;2024-01-11T04:28:44;-5.20;99.90
14357;DHT22;7262;48.764;9.166;2024-01-11T04:31:13;-5.30;99.90
14357;DHT22;7262;48.764;9.166;2024-01-11T04:33:40;-5.30;99.90
14357;DHT22;7262;48.764;9.166;2024-01-11T04:36:07;-5.30;99.90
14357;DHT22;7262;48.764;9.166;2024-01-11T04:38:34;-5.40;99.90
14357;DHT22;7262;48.764;9.166;2024-01-11T04:41:02;-5.40;99.90
14357;DHT22;7262;48.764;9.166;2024-01-11T04:43:31;-5.40;99.90
14357;DHT22;7262;48.764;9.166;2024-01-11T04:45:57;-5.40;99.90
14357;DHT22;7262;48.764;9.166;2024-01-11T04:48:24;-5.40;99.90
14357;DHT22;7262;48.764;9.166;2024-01-11T04:50:51;-5.50;99.90
14357;DHT22;7262;48.764;9.166;2024-01-11T04:53:18;-5.50;99.90
14357;DHT22;7262;48.764;9.166;2024-01-11T04:55:45;-5.50;99.90
14357;DHT22;7262;48.764;9.166;2024-01-11T04:58:12;-5.50;99.90
14357;DHT22;7262;48.764;9.166;2024-01-11T05:00:40;-5.50;99.90
14357;DHT22;7262;48.764;9.166;2024-01-11T05:03:07;-5.50;99.90
14357;DHT22;7262;48.764;9.166;2024-01-11T05:05:35;-5.50;99.90
14357;DHT22;7262;48.764;9.166;2024-01-11T05:08:02;-5.50;99.90
14357;DHT22;7262;48.764;9.166;2024-01-11T05:10:29;-5.40;99.90
14357;DHT22;7262;48.764;9.166;2024-01-11T05:12:56;-5.40;99.90
14357;DHT22;7262;48.764;9.166;2024-01-11T05:15:23;-5.40;99.90
14357;DHT22;7262;48.764;9.166;2024-01-11T05:17:52;-5.40;99.90
14357;DHT22;7262;48.764;9.166;2024-01-11T05:20:19;-5.40;99.90
14357;DHT22;7262;48.764;9.166;2024-01-11T05:22:46;-5.40;99.90
14357;DHT22;7262;48.764;9.166;2024-01-11T05:25:13;-5.30;99.90
14357;DHT22;7262;48.764;9.166;2024-01-11T05:27:39;-5.30;99.90
14357;DHT22;7262;48.764;9.166;2024-01-11T05:30:06;-5.30;99.90
14357;DHT22;7262;48.764;9.166;2024-01-11T05:32:33;-5.30;99.90
14357;DHT22;7262;48.764;9.166;2024-01-11T05:35:02;-5.50;99.90
14357;DHT22;7262;48.764;9.166;2024-01-11T05:37:28;-5.40;99.90
14357;DHT22;7262;48.764;9.166;2024-01-11T05:39:55;-5.40;99.90
14357;DHT22;7262;48.764;9.166;2024-01-11T05:42:22;-5.40;99.90
14357;DHT22;7262;48.764;9.166;2024-01-11T05:44:50;-5.40;99.90
14357;DHT22;7262;48.764;9.166;2024-01-11T05:47:17;-5.40;99.90
14357;DHT22;7262;48.764;9.166;2024-01-11T05:49:44;-5.30;99.90
14357;DHT22;7262;48.764;9.166;2024-01-11T05:52:13;-5.40;99.90
14357;DHT22;7262;48.764;9.166;2024-01-11T05:54:40;-5.40;99.90
14357;DHT22;7262;48.764;9.166;2024-01-11T05:57:07;-5.50;99.90
14357;DHT22;7262;48.764;9.166;2024-01-11T05:59:34;-5.50;99.90
14357;DHT22;7262;48.764;9.166;2024-01-11T06:02:00;-5.50;99.90
14357;DHT22;7262;48.764;9.166;2024-01-11T06:04:27;-5.50;99.90
14357;DHT22;7262;48.764;9.166;2024-01-11T06:06:55;-5.60;99.90
14357;DHT22;7262;48.764;9.166;2024-01-11T06:09:23;-5.50;99.90
14357;DHT22;7262;48.764;9.166;2024-01-11T06:11:50;-5.50;99.90
14357;DHT22;7262;48.764;9.166;2024-01-11T06:14:17;-5.40;99.90
14357;DHT22;7262;48.764;9.166;2024-01-11T06:16:44;-5.60;99.90
14357;DHT22;7262;48.764;9.166;2024-01-11T06:19:12;-5.70;99.90
14357;DHT22;7262;48.764;9.166;2024-01-11T06:21:39;-5.70;99.90
14357;DHT22;7262;48.764;9.166;2024-01-11T06:24:06;-5.70;99.90
14357;DHT22;7262;48.764;9.166;2024-01-11T06:26:37;-5.60;99.90
14357;DHT22;7262;48.764;9.166;2024-01-11T06:29:04;-5.60;99.90
14357;DHT22;7262;48.764;9.166;2024-01-11T06:31:32;-5.50;99.90
14357;DHT22;7262;48.764;9.166;2024-01-11T06:33:58;-5.50;99.90
14357;DHT22;7262;48.764;9.166;2024-01-11T06:36:26;-5.40;99.90
14357;DHT22;7262;48.764;9.166;2024-01-11T06:38:53;-5.50;99.90
14357;DHT22;7262;48.764;9.166;2024-01-11T06:41:20;-5.60;99.90
14357;DHT22;7262;48.764;9.166;2024-01-11T06:43:48;-5.50;99.90
14357;DHT22;7262;48.764;9.166;2024-01-11T06:46:19;-5.70;99.90
14357;DHT22;7262;48.764;9.166;2024-01-11T06:48:48;-5.60;99.90
14357;DHT22;7262;48.764;9.166;2024-01-11T06:51:15;-5.60;99.90
14357;DHT22;7262;48.764;9.166;2024-01-11T06:53:47;-5.60;99.90
14357;DHT22;7262;48.764;9.166;2024-01-11T06:56:15;-5.70;99.90
14357;DHT22;7262;48.764;9.166;2024-01-11T06:58:42;-5.60;99.90
14357;DHT22;7262;48.764;9.166;2024-01-11T07:01:10;-5.60;99.90
14357;DHT22;7262;48.764;9.166;2024-01-11T07:03:37;-5.40;99.90
14357;DHT22;7262;48.764;9.166;2024-01-11T07:06:04;-5.60;99.90
14357;DHT22;7262;48.764;9.166;2024-01-11T07:08:32;-5.60;99.90
14357;DHT22;7262;48.764;9.166;2024-01-11T07:10:59;-5.60;99.90
14357;DHT22;7262;48.764;9.166;2024-01-11T07:13:27;-5.40;99.90
14357;DHT22;7262;48.764;9.166;2024-01-11T07:15:54;-5.60;99.90
14357;DHT22;7262;48.764;9.166;2024-01-11T07:18:24;-5.40;99.90
14357;DHT22;7262;48.764;9.166;2024-01-11T07:20:52;-5.50;99.90
14357;DHT22;7262;48.764;9.166;2024-01-11T07:23:19;-5.60;99.90
14357;DHT22;7262;48.764;9.166;2024-01-11T07:25:47;-5.50;99.90
14357;DHT22;7262;48.764;9.166;2024-01-11T08:38:29;-4.10;99.90
14357;DHT22;7262;48.764;9.166;2024-01-11T08:40:57;-4.00;99.90
14357;DHT22;7262;48.764;9.166;2024-01-11T08:43:24;-4.00;99.90
14357;DHT22;7262;48.764;9.166;2024-01-11T08:45:50;-3.90;99.90
14357;DHT22;7262;48.764;9.166;2024-01-11T09:11:40;-3.30;99.90
14357;DHT22;7262;48.764;9.166;2024-01-11T09:14:07;-3.20;99.90
14357;DHT22;7262;48.764;9.166;2024-01-11T09:16:36;-3.10;99.90
14357;DHT22;7262;48.764;9.166;2024-01-11T09:19:05;-3.10;99.90
14357;DHT22;7262;48.764;9.166;2024-01-11T09:21:32;-2.90;99.90
14357;DHT22;7262;48.764;9.166;2024-01-11T09:23:58;-2.80;99.90
14357;DHT22;7262;48.764;9.166;2024-01-11T09:26:25;-2.70;99.90
14357;DHT22;7262;48.764;9.166;2024-01-11T09:28:54;-2.70;99.90
14357;DHT22;7262;48.764;9.166;2024-01-11T09:41:45;-2.40;99.90
14357;DHT22;7262;48.764;9.166;2024-01-11T09:44:18;-2.40;99.90
14357;DHT22;7262;48.764;9.166;2024-01-11T09:46:49;-2.20;99.90
14357;DHT22;7262;48.764;9.166;2024-01-11T09:49:16;-2.10;99.90
14357;DHT22;7262;48.764;9.166;2024-01-11T09:51:46;-2.20;99.90
14357;DHT22;7262;48.764;9.166;2024-01-11T09:54:13;-2.20;99.90
14357;DHT22;7262;48.764;9.166;2024-01-11T09:56:41;-2.00;99.90
14357;DHT22;7262;48.764;9.166;2024-01-11T09:59:11;-2.00;99.90
14357;DHT22;7262;48.764;9.166;2024-01-11T10:01:43;-2.00;99.90
14357;DHT22;7262;48.764;9.166;2024-01-11T10:04:13;-2.10;99.90
14357;DHT22;7262;48.764;9.166;2024-01-11T10:06:41;-2.00;99.90
14357;DHT22;7262;48.764;9.166;2024-01-11T10:09:08;-1.90;99.90
14357;DHT22;7262;48.764;9.166;2024-01-11T10:11:35;-1.80;99.90
14357;DHT22;7262;48.764;9.166;2024-01-11T10:14:03;-1.80;99.90
14357;DHT22;7262;48.764;9.166;2024-01-11T10:16:30;-1.90;99.90
14357;DHT22;7262;48.764;9.166;2024-01-11T10:48:08;-1.20;99.90
14357;DHT22;7262;48.764;9.166;2024-01-11T10:50:38;-1.00;99.90
14357;DHT22;7262;48.764;9.166;2024-01-11T10:53:11;-1.00;99.90
14357;DHT22;7262;48.764;9.166;2024-01-11T10:55:42;-0.90;99.90
14357;DHT22;7262;48.764;9.166;2024-01-11T10:58:10;-0.80;99.90
14357;DHT22;7262;48.764;9.166;2024-01-11T11:00:37;-0.80;99.90
14357;DHT22;7262;48.764;9.166;2024-01-11T11:03:05;-0.70;99.90
14357;DHT22;7262;48.764;9.166;2024-01-11T11:05:35;-0.50;99.90
14357;DHT22;7262;48.764;9.166;2024-01-11T11:08:02;-0.30;99.90
14357;DHT22;7262;48.764;9.166;2024-01-11T11:47:04;5.10;99.90
14357;DHT22;7262;48.764;9.166;2024-01-11T11:50:02;5.10;99.90
14357;DHT22;7262;48.764;9.166;2024-01-11T11:52:30;4.50;99.90
14357;DHT22;7262;48.764;9.166;2024-01-11T11:54:59;3.40;99.90
14357;DHT22;7262;48.764;9.166;2024-01-11T11:57:26;2.60;99.90
14357;DHT22;7262;48.764;9.166;2024-01-11T11:59:55;1.80;99.90
14357;DHT22;7262;48.764;9.166;2024-01-11T12:02:24;1.30;99.90
14357;DHT22;7262;48.764;9.166;2024-01-11T12:04:51;1.10;99.90
14357;DHT22;7262;48.764;9.166;2024-01-11T12:07:19;1.00;99.90
14357;DHT22;7262;48.764;9.166;2024-01-11T12:09:48;0.90;99.90
14357;DHT22;7262;48.764;9.166;2024-01-11T12:12:20;0.80;99.90
14357;DHT22;7262;48.764;9.166;2024-01-11T12:14:47;0.90;99.90
14357;DHT22;7262;48.764;9.166;2024-01-11T12:54:01;0.90;99.90
14357;DHT22;7262;48.764;9.166;2024-01-11T12:56:29;0.90;99.90
14357;DHT22;7262;48.764;9.166;2024-01-11T12:59:04;1.00;99.90
14357;DHT22;7262;48.764;9.166;2024-01-11T13:01:47;1.00;99.90
14357;DHT22;7262;48.764;9.166;2024-01-11T13:04:15;1.10;99.90
14357;DHT22;7262;48.764;9.166;2024-01-11T13:06:42;1.30;99.90
14357;DHT22;7262;48.764;9.166;2024-01-11T13:09:13;0.90;99.90
14357;DHT22;7262;48.764;9.166;2024-01-11T13:14:16;1.20;99.90
14357;DHT22;7262;48.764;9.166;2024-01-11T13:16:44;1.30;99.90
14357;DHT22;7262;48.764;9.166;2024-01-11T13:19:14;1.30;99.90
14357;DHT22;7262;48.764;9.166;2024-01-11T13:21:41;1.40;99.90
14357;DHT22;7262;48.764;9.166;2024-01-11T13:31:57;1.40;99.90
14357;DHT22;7262;48.764;9.166;2024-01-11T13:34:24;1.40;99.90
14357;DHT22;7262;48.764;9.166;2024-01-11T13:36:51;1.80;99.90
14357;DHT22;7262;48.764;9.166;2024-01-11T13:39:19;2.40;99.90
14357;DHT22;7262;48.764;9.166;2024-01-11T13:41:49;2.90;99.90
14357;DHT22;7262;48.764;9.166;2024-01-11T13:44:16;2.70;99.90
14357;DHT22;7262;48.764;9.166;2024-01-11T13:46:43;2.50;99.90
14357;DHT22;7262;48.764;9.166;2024-01-11T13:49:13;2.10;99.90
14357;DHT22;7262;48.764;9.166;2024-01-11T13:54:15;1.60;99.90
14357;DHT22;7262;48.764;9.166;2024-01-11T14:04:33;1.20;99.90
14357;DHT22;7262;48.764;9.166;2024-01-11T14:07:01;1.30;99.90
14357;DHT22;7262;48.764;9.166;2024-01-11T14:09:28;1.20;99.90
14357;DHT22;7262;48.764;9.166;2024-01-11T14:11:57;1.30;99.90
14357;DHT22;7262;48.764;9.166;2024-01-11T14:14:24;1.30;99.90
14357;DHT22;7262;48.764;9.166;2024-01-11T14:16:51;1.20;99.90
14357;DHT22;7262;48.764;9.166;2024-01-11T14:19:18;1.40;99.90
14357;DHT22;7262;48.764;9.166;2024-01-11T14:21:45;1.30;99.90
14357;DHT22;7262;48.764;9.166;2024-01-11T14:24:12;1.20;99.90
14357;DHT22;7262;48.764;9.166;2024-01-11T14:26:43;1.10;99.90
14357;DHT22;7262;48.764;9.166;2024-01-11T14:29:10;1.10;99.90
14357;DHT22;7262;48.764;9.166;2024-01-11T14:31:41;0.90;99.90
14357;DHT22;7262;48.764;9.166;2024-01-11T14:34:08;1.00;99.90
14357;DHT22;7262;48.764;9.166;2024-01-11T14:36:35;1.20;99.90
14357;DHT22;7262;48.764;9.166;2024-01-11T14:39:05;1.10;99.90
14357;DHT22;7262;48.764;9.166;2024-01-11T14:41:35;1.00;99.90
14357;DHT22;7262;48.764;9.166;2024-01-11T14:44:03;1.10;99.90
14357;DHT22;7262;48.764;9.166;2024-01-11T14:46:31;1.00;99.90
14357;DHT22;7262;48.764;9.166;2024-01-11T16:06:20;-0.70;99.90
14357;DHT22;7262;48.764;9.166;2024-01-11T16:16:33;-0.70;99.90
14357;DHT22;7262;48.764;9.166;2024-01-11T18:17:40;-2.10;99.90
14357;DHT22;7262;48.764;9.166;2024-01-11T18:20:07;-2.10;99.90
14357;DHT22;7262;48.764;9.166;2024-01-11T18:22:34;-2.30;99.90
14357;DHT22;7262;48.764;9.166;2024-01-11T18:25:01;-2.10;99.90
14357;DHT22;7262;48.764;9.166;2024-01-11T18:27:31;-2.10;99.90
14357;DHT22;7262;48.764;9.166;2024-01-11T18:29:57;-2.20;99.90
14357;DHT22;7262;48.764;9.166;2024-01-11T18:32:24;-2.20;99.90
14357;DHT22;7262;48.764;9.166;2024-01-11T18:34:55;-2.30;99.90
14357;DHT22;7262;48.764;9.166;2024-01-11T18:37:23;-2.20;99.90
14357;DHT22;7262;48.764;9.166;2024-01-11T18:39:52;-2.20;99.90
14357;DHT22;7262;48.764;9.166;2024-01-11T18:42:24;-2.30;99.90
14357;DHT22;7262;48.764;9.166;2024-01-11T18:44:54;-2.40;99.90
14357;DHT22;7262;48.764;9.166;2024-01-11T18:47:24;-2.30;99.90
14357;DHT22;7262;48.764;9.166;2024-01-11T18:49:51;-2.30;99.90
14357;DHT22;7262;48.764;9.166;2024-01-11T18:52:20;-2.40;99.90
14357;DHT22;7262;48.764;9.166;2024-01-11T18:54:49;-2.50;99.90
14357;DHT22;7262;48.764;9.166;2024-01-11T18:57:18;-2.60;99.90
14357;DHT22;7262;48.764;9.166;2024-01-11T18:59:45;-2.50;99.90
14357;DHT22;7262;48.764;9.166;2024-01-11T19:02:13;-2.60;99.90
14357;DHT22;7262;48.764;9.166;2024-01-11T19:04:40;-2.70;99.90
14357;DHT22;7262;48.764;9.166;2024-01-11T19:07:07;-2.60;99.90
14357;DHT22;7262;48.764;9.166;2024-01-11T19:09:35;-2.60;99.90
14357;DHT22;7262;48.764;9.166;2024-01-11T19:12:02;-2.60;99.90
14357;DHT22;7262;48.764;9.166;2024-01-11T19:14:30;-2.70;99.90
14357;DHT22;7262;48.764;9.166;2024-01-11T19:17:00;-2.70;99.90
14357;DHT22;7262;48.764;9.166;2024-01-11T19:19:30;-2.60;99.90
14357;DHT22;7262;48.764;9.166;2024-01-11T19:22:00;-2.80;99.90
14357;DHT22;7262;48.764;9.166;2024-01-11T19:24:26;-2.70;99.90
14357;DHT22;7262;48.764;9.166;2024-01-11T19:26:56;-2.80;99.90
14357;DHT22;7262;48.764;9.166;2024-01-11T20:08:15;-3.20;99.90
14357;DHT22;7262;48.764;9.166;2024-01-11T20:10:42;-3.20;99.90
14357;DHT22;7262;48.764;9.166;2024-01-11T20:13:11;-3.20;99.90
14357;DHT22;7262;48.764;9.166;2024-01-11T20:26:01;-3.40;99.90
14357;DHT22;7262;48.764;9.166;2024-01-11T20:28:29;-3.40;99.90
14357;DHT22;7262;48.764;9.166;2024-01-11T20:30:56;-3.30;99.90
14357;DHT22;7262;48.764;9.166;2024-01-11T20:33:23;-3.40;99.90
14357;DHT22;7262;48.764;9.166;2024-01-11T20:35:51;-3.30;99.90
14357;DHT22;7262;48.764;9.166;2024-01-11T20:38:20;-3.40;99.90
14357;DHT22;7262;48.764;9.166;2024-01-11T20:40:48;-3.20;99.90
14357;DHT22;7262;48.764;9.166;2024-01-11T20:43:16;-3.40;99.90
14357;DHT22;7262;48.764;9.166;2024-01-11T20:45:43;-3.40;99.90
14357;DHT22;7262;48.764;9.166;2024-01-11T20:48:10;-3.50;99.90
14357;DHT22;7262;48.764;9.166;2024-01-11T20:50:37;-3.50;99.90
14357;DHT22;7262;48.764;9.166;2024-01-11T20:53:04;-3.50;99.90
14357;DHT22;7262;48.764;9.166;2024-01-11T20:55:31;-3.50;99.90
14357;DHT22;7262;48.764;9.166;2024-01-11T20:57:57;-3.70;99.90
14357;DHT22;7262;48.764;9.166;2024-01-11T21:00:25;-3.60;99.90
14357;DHT22;7262;48.764;9.166;2024-01-11T21:02:52;-3.50;99.90
14357;DHT22;7262;48.764;9.166;2024-01-11T21:05:21;-3.60;99.90
14357;DHT22;7262;48.764;9.166;2024-01-11T21:07:49;-3.50;99.90
14357;DHT22;7262;48.764;9.166;2024-01-11T21:10:16;-3.40;99.90
14357;DHT22;7262;48.764;9.166;2024-01-11T21:12:42;-3.50;99.90
14357;DHT22;7262;48.764;9.166;2024-01-11T21:15:09;-3.50;99.90
14357;DHT22;7262;48.764;9.166;2024-01-11T21:17:37;-3.50;99.90
14357;DHT22;7262;48.764;9.166;2024-01-11T21:20:05;-3.50;99.90
14357;DHT22;7262;48.764;9.166;2024-01-11T21:22:32;-3.50;99.90
14357;DHT22;7262;48.764;9.166;2024-01-11T21:24:59;-3.50;99.90
14357;DHT22;7262;48.764;9.166;2024-01-11T21:27:26;-3.50;99.90
14357;DHT22;7262;48.764;9.166;2024-01-11T21:29:52;-3.50;99.90
14357;DHT22;7262;48.764;9.166;2024-01-11T21:32:20;-3.60;99.90
14357;DHT22;7262;48.764;9.166;2024-01-11T21:34:48;-3.70;99.90
14357;DHT22;7262;48.764;9.166;2024-01-11T21:37:16;-3.60;99.90
14357;DHT22;7262;48.764;9.166;2024-01-11T21:39:43;-3.70;99.90
14357;DHT22;7262;48.764;9.166;2024-01-11T21:42:10;-3.70;99.90
14357;DHT22;7262;48.764;9.166;2024-01-11T21:44:38;-3.70;99.90
14357;DHT22;7262;48.764;9.166;2024-01-11T21:47:05;-3.70;99.90
14357;DHT22;7262;48.764;9.166;2024-01-11T21:49:32;-3.80;99.90
14357;DHT22;7262;48.764;9.166;2024-01-11T21:52:02;-3.90;99.90
14357;DHT22;7262;48.764;9.166;2024-01-11T22:02:16;-3.70;99.90
14357;DHT22;7262;48.764;9.166;2024-01-11T22:04:43;-3.70;99.90
14357;DHT22;7262;48.764;9.166;2024-01-11T22:07:11;-3.70;99.90
14357;DHT22;7262;48.764;9.166;2024-01-11T22:09:39;-3.70;99.90
14357;DHT22;7262;48.764;9.166;2024-01-11T22:12:07;-3.70;99.90
14357;DHT22;7262;48.764;9.166;2024-01-11T22:14:35;-3.80;99.90
14357;DHT22;7262;48.764;9.166;2024-01-11T22:17:04;-3.80;99.90
14357;DHT22;7262;48.764;9.166;2024-01-11T22:19:31;-3.80;99.90
14357;DHT22;7262;48.764;9.166;2024-01-11T22:21:58;-3.90;99.90
14357;DHT22;7262;48.764;9.166;2024-01-11T22:24:30;-3.90;99.90
14357;DHT22;7262;48.764;9.166;2024-01-11T22:26:57;-4.00;99.90
14357;DHT22;7262;48.764;9.166;2024-01-11T22:29:26;-4.10;99.90
14357;DHT22;7262;48.764;9.166;2024-01-11T22:31:53;-4.00;99.90
14357;DHT22;7262;48.764;9.166;2024-01-11T22:34:20;-4.10;99.90
14357;DHT22;7262;48.764;9.166;2024-01-11T22:36:48;-4.00;99.90
14357;DHT22;7262;48.764;9.166;2024-01-11T22:39:18;-4.10;99.90
14357;DHT22;7262;48.764;9.166;2024-01-11T22:41:46;-4.10;99.90
14357;DHT22;7262;48.764;9.166;2024-01-11T22:44:13;-4.10;99.90
14357;DHT22;7262;48.764;9.166;2024-01-11T22:46:43;-4.10;99.90
14357;DHT22;7262;48.764;9.166;2024-01-11T22:49:10;-4.10;99.90
14357;DHT22;7262;48.764;9.166;2024-01-11T22:51:37;-4.00;99.90
14357;DHT22;7262;48.764;9.166;2024-01-11T22:54:04;-4.10;99.90
14357;DHT22;7262;48.764;9.166;2024-01-11T22:56:36;-4.20;99.90
14357;DHT22;7262;48.764;9.166;2024-01-11T22:59:07;-4.20;99.90
14357;DHT22;7262;48.764;9.166;2024-01-11T23:01:40;-4.10;99.90
14357;DHT22;7262;48.764;9.166;2024-01-11T23:04:07;-4.10;99.90
14357;DHT22;7262;48.764;9.166;2024-01-11T23:06:34;-4.20;99.90
14357;DHT22;7262;48.764;9.166;2024-01-11T23:09:01;-4.20;99.90
14357;DHT22;7262;48.764;9.166;2024-01-11T23:11:29;-4.10;99.90
14357;DHT22;7262;48.764;9.166;2024-01-11T23:13:57;-4.20;99.90
14357;DHT22;7262;48.764;9.166;2024-01-11T23:16:25;-4.20;99.90
14357;DHT22;7262;48.764;9.166;2024-01-11T23:18:53;-4.20;99.90
14357;DHT22;7262;48.764;9.166;2024-01-11T23:21:20;-4.30;99.90
14357;DHT22;7262;48.764;9.166;2024-01-11T23:23:47;-4.30;99.90
14357;DHT22;7262;48.764;9.166;2024-01-11T23:26:14;-4.30;99.90
14357;DHT22;7262;48.764;9.166;2024-01-11T23:28:41;-4.30;99.90
14357;DHT22;7262;48.764;9.166;2024-01-11T23:31:08;-4.40;99.90
14357;DHT22;7262;48.764;9.166;2024-01-11T23:33:36;-4.40;99.90
14357;DHT22;7262;48.764;9.166;2024-01-11T23:36:03;-4.30;99.90
14357;DHT22;7262;48.764;9.166;2024-01-11T23:38:30;-4.40;99.90
14357;DHT22;7262;48.764;9.166;2024-01-11T23:40:57;-4.40;99.90
14357;DHT22;7262;48.764;9.166;2024-01-11T23:43:24;-4.40;99.90
14357;DHT22;7262;48.764;9.166;2024-01-11T23:45:51;-4.40;99.90
14357;DHT22;7262;48.764;9.166;2024-01-11T23:48:18;-4.40;99.90
14357;DHT22;7262;48.764;9.166;2024-01-11T23:50:46;-4.40;99.90
14357;DHT22;7262;48.764;9.166;2024-01-11T23:53:15;-4.40;99.90
14357;DHT22;7262;48.764;9.166;2024-01-11T23:58:18;-4.40;99.90
